Motion Scan — PCNB — position and weather

sailwx.info

Track history (hours):
 
Tides and Currents Weather Stations Pressure Air Temp Water Temp Dewpoint Dewpoint Depression Visibility Wind Speed Wind Dir Waves Ship Positions

Motion Scan

Last reported at 2016-Apr-24 16:18 UTC. Time now 2016-Apr-28 23:55 UTC.
Position N 42°15' E 035°36'.

Length 116 m; draft 5.8 m.

Type: Cargo ship. MMSI: 245523000.

Date/timePositionNaut miles runAvg speedWind from/ knotsBaromVisibWave heightAir tempDewpointWater temp
2016-Apr-24 16:18N 42°15' E 035°36'810.3
2016-Apr-24 15:33N 42°18' E 035°26'1110.6
2016-Apr-24 14:33N 42°23' E 035°14'1110.6
2016-Apr-24 13:33N 42°27' E 035°00'1110.9
2016-Apr-24 12:33N 42°27' E 034°45'1111.4
2016-Apr-24 11:33N 42°27' E 034°30'1111.2
2016-Apr-24 10:33N 42°28' E 034°15'25010.7
2016-Apr-23 11:15N 41°01' E 028°60'6 8.8
2016-Apr-23 10:33N 40°55' E 028°58'3 1.0
2016-Apr-23 07:24N 40°58' E 028°56'4 5.1
2016-Apr-23 06:33N 40°54' E 028°56'1212.3
2016-Apr-23 05:33N 40°46' E 028°43'4911.7
2016-Apr-23 01:23N 40°42' E 027°39'25211.5
2016-Apr-22 03:27N 37°24' E 024°18'46110.5
2016-Apr-20 07:22N 36°13' E 014°49'1011.9
2016-Apr-20 06:33N 36°14' E 014°37'1212.5
2016-Apr-20 05:33N 36°19' E 014°23'1312.5
2016-Apr-20 04:33N 36°24' E 014°08'1312.7
2016-Apr-20 03:33N 36°28' E 013°54'1313.1
2016-Apr-20 02:33N 36°33' E 013°38'1313.2
2016-Apr-20 01:33N 36°38' E 013°23'1313.4
2016-Apr-20 00:33N 36°43' E 013°07'1613.5
2016-Apr-19 23:20N 36°49' E 012°48'1713.4
2016-Apr-19 22:05N 36°55' E 012°29'713.1
2016-Apr-19 21:33N 36°57' E 012°20'1313.1
2016-Apr-19 20:33N 37°01' E 012°05'1312.6
2016-Apr-19 19:33N 37°07' E 011°51'1412.9
2016-Apr-19 18:28N 37°13' E 011°35'1413.0
2016-Apr-19 17:26N 37°18' E 011°19'58112.9
2016-Apr-17 20:24N 36°32' W 000°45'21713.6
2016-Apr-17 04:27N 35°56' W 005°11'7 7.8
2016-Apr-17 03:33N 35°54' W 005°19'0 0.0
2016-Apr-17 02:33N 35°54' W 005°19'0 0.0
2016-Apr-17 01:33N 35°54' W 005°19'0 0.0
2016-Apr-17 00:33N 35°54' W 005°19'0 0.0
2016-Apr-16 23:33N 35°54' W 005°19'0 0.0
2016-Apr-16 22:33N 35°54' W 005°19'4 4.4
2016-Apr-16 21:33N 35°57' W 005°23'24911.2
2016-Apr-15 23:16N 38°01' W 009°53'912.0
2016-Apr-15 22:30N 38°10' W 009°56'1212.2
2016-Apr-15 21:33N 38°21' W 009°59'1212.3
2016-Apr-15 20:33N 38°33' W 010°02'1312.6
2016-Apr-15 19:33N 38°46' W 010°06'1312.5
2016-Apr-15 18:33N 38°58' W 010°06'1212.3
2016-Apr-15 17:33N 39°11' W 010°06'  
Track history (hours):
 
Tides and Currents Weather Stations Pressure Air Temp Water Temp Dewpoint Dewpoint Depression Visibility Wind Speed Wind Dir Waves Ship Positions

Motion Scan

Last reported at 2016-Apr-24 16:18 UTC. Time now 2016-Apr-28 23:55 UTC.
Position N 42°15' E 035°36'.

Length 116 m; draft 5.8 m.

Type: Cargo ship. MMSI: 245523000.

Date/timePositionNaut miles runAvg speedWind from/ knotsBaromVisibWave heightAir tempDewpointWater temp
2016-Apr-24 16:18N 42°15' E 035°36'810.3
2016-Apr-24 15:33N 42°18' E 035°26'1110.6
2016-Apr-24 14:33N 42°23' E 035°14'1110.6
2016-Apr-24 13:33N 42°27' E 035°00'1110.9
2016-Apr-24 12:33N 42°27' E 034°45'1111.4
2016-Apr-24 11:33N 42°27' E 034°30'1111.2
2016-Apr-24 10:33N 42°28' E 034°15'25010.7
2016-Apr-23 11:15N 41°01' E 028°60'6 8.8
2016-Apr-23 10:33N 40°55' E 028°58'3 1.0
2016-Apr-23 07:24N 40°58' E 028°56'4 5.1
2016-Apr-23 06:33N 40°54' E 028°56'1212.3
2016-Apr-23 05:33N 40°46' E 028°43'4911.7
2016-Apr-23 01:23N 40°42' E 027°39'25211.5
2016-Apr-22 03:27N 37°24' E 024°18'46110.5
2016-Apr-20 07:22N 36°13' E 014°49'1011.9
2016-Apr-20 06:33N 36°14' E 014°37'1212.5
2016-Apr-20 05:33N 36°19' E 014°23'1312.5
2016-Apr-20 04:33N 36°24' E 014°08'1312.7
2016-Apr-20 03:33N 36°28' E 013°54'1313.1
2016-Apr-20 02:33N 36°33' E 013°38'1313.2
2016-Apr-20 01:33N 36°38' E 013°23'1313.4
2016-Apr-20 00:33N 36°43' E 013°07'1613.5
2016-Apr-19 23:20N 36°49' E 012°48'1713.4
2016-Apr-19 22:05N 36°55' E 012°29'713.1
2016-Apr-19 21:33N 36°57' E 012°20'1313.1
2016-Apr-19 20:33N 37°01' E 012°05'1312.6
2016-Apr-19 19:33N 37°07' E 011°51'1412.9
2016-Apr-19 18:28N 37°13' E 011°35'1413.0
2016-Apr-19 17:26N 37°18' E 011°19'58112.9
2016-Apr-17 20:24N 36°32' W 000°45'21713.6
2016-Apr-17 04:27N 35°56' W 005°11'7 7.8
2016-Apr-17 03:33N 35°54' W 005°19'0 0.0
2016-Apr-17 02:33N 35°54' W 005°19'0 0.0
2016-Apr-17 01:33N 35°54' W 005°19'0 0.0
2016-Apr-17 00:33N 35°54' W 005°19'0 0.0
2016-Apr-16 23:33N 35°54' W 005°19'0 0.0
2016-Apr-16 22:33N 35°54' W 005°19'4 4.4
2016-Apr-16 21:33N 35°57' W 005°23'24911.2
2016-Apr-15 23:16N 38°01' W 009°53'912.0
2016-Apr-15 22:30N 38°10' W 009°56'1212.2
2016-Apr-15 21:33N 38°21' W 009°59'1212.3
2016-Apr-15 20:33N 38°33' W 010°02'1312.6
2016-Apr-15 19:33N 38°46' W 010°06'1312.5
2016-Apr-15 18:33N 38°58' W 010°06'1212.3
2016-Apr-15 17:33N 39°11' W 010°06'  

Dump ship's entire track history